Time;durP1;ratioP1;P1;durP2;ratioP2;P2;SDS_P1;SDS_P2;PMS_P1;PMS_P2;Temp;Humidity;BMP_temperature;BMP_pressure;BME280_temperature;BME280_humidity;BME280_pressure;Samples;Min_cycle;Max_cycle;Signal;HPM_P1;HPM_P2
2022/12/04 00:02:35;;;;;;;23.67;14.07;;;;;;;8.03;55.76;98470.88;7016716;28;20293;-80
2022/12/04 00:06:03;;;;;;;26.63;14.43;;;;;;;8.04;54.90;98467.16;7008615;28;20205;-81
2022/12/04 00:09:24;;;;;;;21.90;13.80;;;;;;;7.79;54.82;98419.50;7003094;28;20230;-81
2022/12/04 00:12:46;;;;;;;24.57;14.60;;;;;;;8.31;54.60;98466.28;7004112;28;20296;-81
2022/12/04 00:16:12;;;;;;;21.23;14.00;;;;;;;8.46;54.15;98463.47;7003411;28;20207;-81
2022/12/04 00:19:33;;;;;;;21.73;13.60;;;;;;;7.93;54.09;98450.75;7002308;28;20262;-81
2022/12/04 00:22:55;;;;;;;24.63;14.17;;;;;;;8.01;54.42;98453.28;6996667;28;20238;-80
2022/12/04 00:26:18;;;;;;;20.97;14.40;;;;;;;8.12;53.88;98455.41;7002380;28;20273;-81
2022/12/04 00:29:40;;;;;;;25.27;15.60;;;;;;;7.51;54.52;98422.19;7003464;28;20337;-81
2022/12/04 00:33:03;;;;;;;21.00;13.43;;;;;;;7.63;55.73;98466.25;7002128;28;20744;-81
2022/12/04 00:36:26;;;;;;;25.50;14.73;;;;;;;7.34;55.83;98469.09;7006744;28;20296;-80
2022/12/04 00:39:47;;;;;;;21.83;13.67;;;;;;;7.66;56.40;98460.47;7009088;28;20282;-80
2022/12/04 00:43:09;;;;;;;23.97;14.50;;;;;;;7.84;55.46;98455.44;7007998;28;20299;-81
2022/12/04 00:46:31;;;;;;;21.63;14.20;;;;;;;8.07;54.44;98447.94;7007821;28;20221;-81
2022/12/04 00:49:53;;;;;;;19.37;13.53;;;;;;;8.30;53.73;98453.88;7008235;28;20244;-81
2022/12/04 00:53:15;;;;;;;21.77;14.13;;;;;;;8.28;54.24;98450.59;7008234;28;20677;-80
2022/12/04 00:56:36;;;;;;;22.17;13.80;;;;;;;8.00;53.80;98366.56;7007994;28;20229;-80
2022/12/04 00:59:58;;;;;;;24.40;14.40;;;;;;;7.53;55.82;98452.31;7007817;28;20781;-81
2022/12/04 01:03:19;;;;;;;21.17;13.27;;;;;;;7.77;54.72;98406.28;7008274;28;20233;-81
2022/12/04 01:06:42;;;;;;;19.37;14.17;;;;;;;7.77;55.14;98448.38;7006493;28;20279;-80
2022/12/04 01:10:05;;;;;;;21.50;13.70;;;;;;;7.45;56.51;98436.38;7007365;28;20292;-81
2022/12/04 01:13:27;;;;;;;20.03;13.07;;;;;;;7.79;56.13;98443.66;7007552;28;20245;-80
2022/12/04 01:16:48;;;;;;;20.30;14.27;;;;;;;7.54;55.91;98445.94;7006908;28;20352;-80
2022/12/04 01:20:11;;;;;;;25.73;14.87;;;;;;;8.00;55.75;98433.66;7006823;28;20266;-81
2022/12/04 01:23:34;;;;;;;24.40;15.10;;;;;;;8.00;54.49;98384.50;7006704;28;20272;-80
2022/12/04 01:26:56;;;;;;;22.67;14.40;;;;;;;8.22;54.35;98434.44;7005732;28;20291;-81
2022/12/04 01:30:18;;;;;;;23.37;15.63;;;;;;;7.85;54.68;98419.50;7005755;28;20293;-80
2022/12/04 01:33:40;;;;;;;24.87;15.50;;;;;;;7.94;55.07;98431.75;7006765;28;20305;-80
2022/12/04 01:37:02;;;;;;;22.97;14.60;;;;;;;8.02;54.74;98425.41;7006496;28;20257;-80
2022/12/04 01:40:25;;;;;;;25.50;15.23;;;;;;;7.98;55.13;98427.66;7009662;28;20235;-81
2022/12/04 01:44:22;;;;;;;23.80;14.53;;;;;;;8.19;54.83;98432.13;7010227;28;20273;-81
2022/12/04 01:47:44;;;;;;;22.47;15.27;;;;;;;8.10;54.39;98428.78;7002225;28;20699;-80
2022/12/04 01:51:10;;;;;;;25.30;17.40;;;;;;;8.18;54.40;98422.38;7010795;28;20208;-81
2022/12/04 01:54:34;;;;;;;24.23;17.00;;;;;;;8.09;54.93;98429.81;7011134;28;20304;-81
2022/12/04 01:57:59;;;;;;;24.33;16.37;;;;;;;7.22;57.57;98416.16;7005234;28;20313;-80
2022/12/04 02:01:20;;;;;;;24.13;14.97;;;;;;;7.67;55.29;98387.00;7006002;28;20615;-81
2022/12/04 02:04:42;;;;;;;23.67;15.40;;;;;;;8.04;55.49;98443.00;7006116;28;20265;-81
2022/12/04 02:08:05;;;;;;;23.73;15.60;;;;;;;8.13;54.63;98438.28;7005502;28;20251;-80
2022/12/04 02:11:31;;;;;;;24.27;16.20;;;;;;;7.87;54.96;98438.13;7006592;28;20212;-80
2022/12/04 02:14:57;;;;;;;23.00;15.30;;;;;;;7.67;55.65;98419.19;7005694;28;20250;-80
2022/12/04 02:18:30;;;;;;;23.87;16.77;;;;;;;7.36;55.66;98440.22;7007422;28;20279;-81
2022/12/04 02:21:54;;;;;;;24.07;15.83;;;;;;;7.63;55.68;98417.94;7007212;28;20214;-80
2022/12/04 02:25:23;;;;;;;21.90;15.67;;;;;;;7.05;56.68;98425.50;7006044;28;20242;-81
2022/12/04 02:28:50;;;;;;;26.13;16.70;;;;;;;7.43;56.05;98414.28;7006435;28;20294;-80
2022/12/04 02:32:17;;;;;;;26.33;16.40;;;;;;;7.00;57.08;98422.56;7004946;28;20281;-81
2022/12/04 02:35:41;;;;;;;25.10;16.07;;;;;;;6.77;57.48;98404.00;7006783;28;20194;-81
2022/12/04 02:39:07;;;;;;;24.63;17.50;;;;;;;7.29;57.11;98419.72;7006684;28;20291;-80
2022/12/04 02:42:33;;;;;;;22.80;16.57;;;;;;;7.71;56.04;98411.59;7006495;28;20340;-81
2022/12/04 02:45:59;;;;;;;26.47;17.83;;;;;;;7.18;56.49;98409.56;7005503;28;20285;-80
2022/12/04 02:49:24;;;;;;;25.53;15.47;;;;;;;7.59;55.71;98405.09;7006040;28;20728;-80
2022/12/04 02:52:48;;;;;;;28.97;17.23;;;;;;;7.47;55.91;98401.31;7005817;28;20293;-80
2022/12/04 02:56:12;;;;;;;26.20;16.00;;;;;;;7.47;56.30;98399.47;7004705;28;20317;-80
2022/12/04 02:59:36;;;;;;;23.90;16.50;;;;;;;7.69;55.81;98409.13;7004906;28;20324;-81
2022/12/04 03:03:01;;;;;;;28.00;17.30;;;;;;;7.62;56.14;98400.19;7005741;28;20289;-81
2022/12/04 03:06:24;;;;;;;26.13;15.63;;;;;;;7.34;56.33;98387.81;7004367;28;20195;-81
2022/12/04 03:09:48;;;;;;;25.60;16.23;;;;;;;7.66;55.89;98403.31;7004685;28;20359;-80
2022/12/04 03:13:13;;;;;;;25.73;15.63;;;;;;;7.31;56.06;98380.97;7004495;28;20304;-81
2022/12/04 03:16:38;;;;;;;26.07;17.17;;;;;;;6.96;57.11;98386.47;7004498;28;20205;-80
2022/12/04 03:20:05;;;;;;;26.07;15.60;;;;;;;7.49;56.40;98391.22;7004920;28;20225;-81
2022/12/04 03:23:30;;;;;;;23.77;15.70;;;;;;;7.26;56.28;98379.91;7003662;28;20293;-81
2022/12/04 03:26:56;;;;;;;26.33;16.27;;;;;;;7.92;55.60;98392.72;7004519;28;20265;-81
2022/12/04 03:30:20;;;;;;;23.07;15.80;;;;;;;7.90;54.43;98392.09;7003420;28;20277;-80
2022/12/04 03:33:43;;;;;;;24.47;16.20;;;;;;;7.62;55.45;98380.56;7003718;28;20672;-80
2022/12/04 03:37:10;;;;;;;24.43;17.17;;;;;;;7.27;56.29;98378.88;7004534;28;20368;-80
2022/12/04 03:40:35;;;;;;;24.43;15.97;;;;;;;7.63;54.92;98371.50;7004657;28;20258;-81
2022/12/04 03:44:00;;;;;;;24.90;16.60;;;;;;;7.61;56.20;98385.09;7002443;28;20224;-81
2022/12/04 03:47:28;;;;;;;25.40;16.53;;;;;;;8.03;54.74;98382.28;7002455;28;20289;-80
2022/12/04 03:50:52;;;;;;;23.13;15.77;;;;;;;7.96;54.75;98383.25;7002726;28;20213;-81
2022/12/04 03:54:19;;;;;;;26.83;16.60;;;;;;;7.84;55.41;98361.50;7002937;28;20290;-80
2022/12/04 03:57:43;;;;;;;23.60;15.60;;;;;;;8.15;54.51;98385.22;7002695;28;20227;-80
2022/12/04 04:01:07;;;;;;;23.47;15.07;;;;;;;8.07;54.33;98351.28;7002563;28;20204;-81
2022/12/04 04:04:32;;;;;;;21.97;15.37;;;;;;;8.38;54.31;98378.50;7002552;28;20274;-81
2022/12/04 04:08:24;;;;;;;24.03;16.10;;;;;;;8.49;53.75;98385.97;7002192;28;20363;-80
2022/12/04 04:11:43;;;;;;;22.93;15.17;;;;;;;8.35;53.23;98351.22;7001570;28;20255;-81
2022/12/04 04:26:22;;;;;;;26.90;16.80;;;;;;;8.03;55.32;98401.06;6861696;28;20206;-81
2022/12/04 04:29:45;;;;;;;22.67;15.20;;;;;;;8.39;54.26;98390.94;6881525;28;20270;-81
2022/12/04 04:33:11;;;;;;;22.83;15.43;;;;;;;8.44;53.30;98393.00;7000041;28;20283;-80
2022/12/04 04:36:38;;;;;;;19.60;13.90;;;;;;;8.32;53.42;98392.72;7000916;28;20191;-80
2022/12/04 04:40:04;;;;;;;23.00;13.97;;;;;;;8.44;53.55;98399.19;7001795;28;20276;-81
2022/12/04 04:43:30;;;;;;;24.03;15.43;;;;;;;8.44;53.57;98396.50;7001678;28;20191;-81
2022/12/04 04:46:56;;;;;;;24.57;16.27;;;;;;;8.46;53.63;98402.50;7000845;28;20278;-80
2022/12/04 04:50:18;;;;;;;22.23;14.50;;;;;;;8.41;53.78;98404.97;7001461;28;20619;-80
2022/12/04 04:53:42;;;;;;;21.60;14.33;;;;;;;8.55;53.62;98401.28;7001631;28;20293;-80
2022/12/04 04:57:04;;;;;;;20.43;14.37;;;;;;;8.58;53.49;98414.34;7001305;28;20635;-81
2022/12/04 05:00:25;;;;;;;22.23;12.73;;;;;;;8.51;52.84;98404.59;7001507;28;20230;-79
2022/12/04 05:03:48;;;;;;;19.97;14.50;;;;;;;8.44;53.55;98406.44;7000948;28;20302;-81
2022/12/04 05:07:10;;;;;;;22.27;14.53;;;;;;;8.37;53.96;98413.63;7000558;28;20254;-81
2022/12/04 05:10:31;;;;;;;24.33;14.70;;;;;;;7.73;55.74;98413.03;7000591;28;20298;-81
2022/12/04 05:13:53;;;;;;;24.67;15.37;;;;;;;8.15;54.78;98412.91;7001006;28;20690;-81
2022/12/04 05:17:14;;;;;;;23.87;14.27;;;;;;;8.20;54.69;98390.84;7000237;28;20363;-80
2022/12/04 05:20:40;;;;;;;22.60;15.07;;;;;;;8.18;54.67;98417.00;7002446;28;20368;-80
2022/12/04 05:24:01;;;;;;;26.40;16.00;;;;;;;8.40;54.68;98408.69;7005730;28;20329;-81
2022/12/04 05:27:24;;;;;;;22.60;14.37;;;;;;;8.62;53.37;98396.78;7005410;28;20264;-81
2022/12/04 05:30:45;;;;;;;22.00;15.30;;;;;;;8.39;54.33;98404.34;7004640;28;20667;-81
2022/12/04 05:34:07;;;;;;;23.23;15.20;;;;;;;7.87;54.59;98357.59;7006541;28;20301;-80
2022/12/04 05:37:30;;;;;;;24.83;15.17;;;;;;;7.74;55.22;98369.13;7005960;28;20324;-80
2022/12/04 05:40:51;;;;;;;23.43;15.60;;;;;;;7.15;57.18;98361.66;7006309;28;20671;-80
2022/12/04 05:44:13;;;;;;;24.60;15.10;;;;;;;7.73;56.51;98396.94;7001788;28;20252;-83
2022/12/04 05:47:39;;;;;;;23.73;16.00;;;;;;;7.49;57.01;98308.09;6979559;28;20260;-82
2022/12/04 05:51:01;;;;;;;23.80;14.60;;;;;;;7.84;55.12;98305.16;6994703;28;20203;-85
2022/12/04 05:54:27;;;;;;;22.60;13.80;;;;;;;8.44;54.38;98399.19;7000607;28;20776;-85
2022/12/04 05:57:48;;;;;;;21.87;13.87;;;;;;;8.47;53.69;98396.09;7003544;28;20229;-86
2022/12/04 06:01:15;;;;;;;23.40;14.17;;;;;;;8.32;54.72;98403.47;6997301;28;20207;-83
2022/12/04 06:04:37;;;;;;;22.70;14.30;;;;;;;8.40;53.62;98365.72;7009578;28;20248;-89
2022/12/04 06:07:59;;;;;;;20.00;13.87;;;;;;;8.13;53.88;98329.00;7005773;28;20249;-78
2022/12/04 06:11:23;;;;;;;24.10;14.33;;;;;;;8.31;54.39;98404.50;7003636;28;20677;-79
2022/12/04 06:14:45;;;;;;;20.30;14.00;;;;;;;8.14;54.90;98384.38;7003210;28;20218;-81
2022/12/04 06:18:07;;;;;;;23.23;14.90;;;;;;;8.22;54.47;98343.97;7003444;28;20235;-82
2022/12/04 06:21:30;;;;;;;23.50;14.93;;;;;;;8.39;53.68;98337.19;6991669;28;20216;-78
2022/12/04 06:24:52;;;;;;;20.37;13.43;;;;;;;8.01;54.00;98321.75;6973811;28;20717;-81
2022/12/04 06:28:15;;;;;;;19.83;13.33;;;;;;;8.57;54.36;98393.03;6975263;28;20255;-81
2022/12/04 06:31:37;;;;;;;22.97;14.33;;;;;;;7.97;54.87;98336.59;6973778;28;20205;-81
2022/12/04 06:34:58;;;;;;;19.40;12.80;;;;;;;8.12;54.09;98332.72;6976074;28;20196;-79
2022/12/04 06:38:20;;;;;;;22.77;14.87;;;;;;;7.89;54.59;98313.44;6977018;28;20234;-83
2022/12/04 06:41:41;;;;;;;23.40;14.33;;;;;;;8.28;54.15;98335.09;6976963;28;20212;-80
2022/12/04 06:45:05;;;;;;;21.30;14.43;;;;;;;8.36;53.95;98326.84;6974510;28;20264;-79
2022/12/04 06:48:28;;;;;;;23.27;14.03;;;;;;;8.63;53.46;98338.47;6976371;28;20227;-80
2022/12/04 06:51:49;;;;;;;21.23;13.53;;;;;;;8.54;52.70;98329.78;6975723;28;20210;-79
2022/12/04 06:55:11;;;;;;;20.33;13.93;;;;;;;8.40;53.12;98333.47;6974454;28;20202;-79
2022/12/04 06:58:33;;;;;;;18.90;13.07;;;;;;;8.83;53.23;98388.56;6975835;28;20271;-80
2022/12/04 07:01:57;;;;;;;23.63;14.33;;;;;;;8.28;53.84;98323.53;6997500;28;20210;-80
2022/12/04 07:05:18;;;;;;;21.33;14.20;;;;;;;8.57;53.63;98345.50;7004377;28;20206;-80
2022/12/04 07:08:40;;;;;;;23.27;15.23;;;;;;;8.71;54.07;98406.31;7001043;28;20215;-79
2022/12/04 07:12:02;;;;;;;21.57;13.87;;;;;;;8.46;53.95;98418.63;6978021;28;20219;-79
2022/12/04 07:15:23;;;;;;;23.03;13.73;;;;;;;8.04;54.62;98340.13;6976677;28;21069;-79
2022/12/04 07:18:49;;;;;;;20.03;13.30;;;;;;;8.27;54.31;98352.25;6978647;28;20223;-79
2022/12/04 07:22:10;;;;;;;23.87;13.77;;;;;;;8.76;53.80;98411.06;6998482;28;20204;-79
2022/12/04 07:25:32;;;;;;;26.43;16.30;;;;;;;8.24;54.59;98351.84;6993847;28;20203;-79
2022/12/04 07:28:54;;;;;;;26.70;16.17;;;;;;;8.65;54.28;98399.06;6976790;28;20228;-79
2022/12/04 07:32:15;;;;;;;28.30;16.17;;;;;;;8.62;53.94;98390.56;6974916;28;20296;-79
2022/12/04 07:35:38;;;;;;;20.57;14.30;;;;;;;8.37;54.70;98384.91;6977010;28;20206;-80
2022/12/04 07:39:00;;;;;;;21.90;13.63;;;;;;;8.45;54.69;98395.50;6976874;28;20701;-79
2022/12/04 07:42:21;;;;;;;23.10;15.30;;;;;;;8.72;54.28;98396.41;6976497;28;20302;-80
2022/12/04 07:45:43;;;;;;;24.07;15.40;;;;;;;8.43;55.51;98402.09;6985413;28;20226;-79
2022/12/04 07:49:04;;;;;;;25.00;16.17;;;;;;;8.73;54.73;98414.19;7003951;28;20720;-79
2022/12/04 07:52:27;;;;;;;19.43;13.07;;;;;;;8.79;54.01;98394.53;7004324;28;20290;-79
2022/12/04 07:55:52;;;;;;;21.03;14.30;;;;;;;9.01;53.33;98421.03;7004364;28;20232;-80
2022/12/04 07:59:13;;;;;;;20.97;13.47;;;;;;;8.84;53.57;98403.63;7004187;28;20310;-79
2022/12/04 08:02:35;;;;;;;18.53;11.73;;;;;;;8.67;53.26;98378.16;6987030;28;20246;-80
2022/12/04 08:05:59;;;;;;;18.93;13.17;;;;;;;8.64;54.16;98413.53;7004806;28;20684;-80
2022/12/04 08:09:22;;;;;;;19.60;13.33;;;;;;;8.73;53.88;98398.84;7003044;28;20712;-80
2022/12/04 08:12:44;;;;;;;20.07;13.70;;;;;;;8.67;54.90;98391.59;7001399;28;20345;-81
2022/12/04 08:16:07;;;;;;;21.83;14.20;;;;;;;8.25;54.96;98405.31;7002924;28;20248;-79
2022/12/04 08:19:29;;;;;;;23.00;15.57;;;;;;;8.15;56.28;98396.78;7003117;28;20327;-79
2022/12/04 08:22:50;;;;;;;20.23;15.40;;;;;;;8.71;54.77;98411.69;7003802;28;20321;-79
2022/12/04 08:26:13;;;;;;;28.03;16.73;;;;;;;8.80;54.65;98396.19;7003890;28;20651;-80
2022/12/04 08:29:35;;;;;;;22.40;16.17;;;;;;;8.63;54.80;98402.97;6998934;28;20238;-80
2022/12/04 08:32:56;;;;;;;24.97;16.80;;;;;;;8.35;55.00;98389.66;6973632;28;20239;-79
2022/12/04 08:36:20;;;;;;;22.37;15.77;;;;;;;7.60;57.11;98417.50;6975377;28;20656;-79
2022/12/04 08:39:41;;;;;;;23.33;15.47;;;;;;;8.29;56.04;98417.31;6975619;28;20323;-80
2022/12/04 08:43:04;;;;;;;24.83;16.50;;;;;;;7.85;57.67;98418.72;6976485;28;20215;-80
2022/12/04 08:46:27;;;;;;;24.33;16.73;;;;;;;8.54;55.69;98386.19;6975704;28;20215;-79
2022/12/04 08:49:48;;;;;;;23.00;14.23;;;;;;;8.72;54.99;98432.13;6977707;28;20313;-79
2022/12/04 08:53:10;;;;;;;22.70;14.67;;;;;;;8.21;55.89;98433.63;7004176;28;20228;-79
2022/12/04 09:00:50;;;;;;;22.37;14.90;;;;;;;8.09;55.52;98419.06;7009746;28;20306;-82
2022/12/04 09:04:11;;;;;;;24.23;14.87;;;;;;;8.00;56.36;98428.28;7010974;28;20656;-80
2022/12/04 09:29:49;;;;;;;21.63;14.30;;;;;;;7.31;58.34;98394.38;6740579;29;20234;-79
2022/12/04 09:33:18;;;;;;;20.20;13.30;;;;;;;7.70;56.28;98362.47;6771097;29;20296;-80
2022/12/04 09:52:54;;;;;;;19.80;13.07;;;;;;;7.10;58.22;98322.06;6736473;29;20198;-79
2022/12/04 09:56:19;;;;;;;25.47;16.73;;;;;;;7.32;58.48;98312.91;6734879;29;20233;-78
2022/12/04 09:59:41;;;;;;;23.80;14.77;;;;;;;8.19;57.24;98373.84;6739844;29;20248;-79
2022/12/04 10:03:05;;;;;;;19.73;12.67;;;;;;;8.20;56.24;98359.44;6761212;29;20219;-79
2022/12/04 10:06:30;;;;;;;23.20;13.83;;;;;;;7.75;57.00;98330.50;6760236;29;20214;-79
2022/12/04 10:09:57;;;;;;;26.20;15.97;;;;;;;7.97;58.00;98348.19;6760489;29;20261;-79
2022/12/04 10:13:30;;;;;;;24.50;14.70;;;;;;;8.53;55.96;98348.78;6760558;29;20330;-79
2022/12/04 10:17:13;;;;;;;23.70;13.23;;;;;;;8.07;57.05;98362.03;6759756;29;20338;-79
2022/12/04 10:20:56;;;;;;;22.17;12.80;;;;;;;8.40;56.51;98362.19;6851859;28;20852;-79
2022/12/04 10:24:28;;;;;;;23.70;14.07;;;;;;;7.78;57.39;98364.19;6919736;28;20310;-79
2022/12/04 10:27:55;;;;;;;25.27;16.07;;;;;;;8.13;56.98;98358.53;6996886;28;20587;-79
2022/12/04 10:31:16;;;;;;;26.20;17.13;;;;;;;8.41;56.66;98351.25;7000499;28;20241;-79
2022/12/04 10:34:38;;;;;;;21.50;13.37;;;;;;;8.19;56.66;98365.81;7005114;28;20707;-79
2022/12/04 10:38:02;;;;;;;21.77;14.20;;;;;;;8.31;57.15;98382.22;7004402;28;20253;-79
2022/12/04 10:41:27;;;;;;;20.27;13.63;;;;;;;8.67;56.24;98370.09;7005422;28;20364;-79
2022/12/04 10:44:50;;;;;;;23.90;14.30;;;;;;;8.26;55.30;98361.31;7005469;28;20226;-79
2022/12/04 10:48:18;;;;;;;24.20;15.43;;;;;;;8.31;56.82;98379.53;7004863;28;20223;-79
2022/12/04 10:51:41;;;;;;;21.37;13.43;;;;;;;8.68;56.01;98373.63;7004683;28;20288;-79
2022/12/04 10:55:03;;;;;;;22.13;13.83;;;;;;;8.60;55.06;98360.41;7004188;28;20254;-79
2022/12/04 10:58:26;;;;;;;26.70;17.17;;;;;;;7.67;57.37;98370.91;7004268;28;20308;-79
2022/12/04 11:01:49;;;;;;;24.83;14.53;;;;;;;7.63;59.34;98355.41;7004940;28;20259;-79
2022/12/04 11:05:23;;;;;;;24.57;15.20;;;;;;;7.90;58.31;98343.81;7003909;28;20234;-79
2022/12/04 11:08:50;;;;;;;21.87;13.30;;;;;;;8.35;56.84;98351.22;7004386;28;20234;-79
2022/12/04 11:12:18;;;;;;;22.17;14.03;;;;;;;8.16;56.95;98317.03;7000518;28;20591;-79
2022/12/04 11:15:43;;;;;;;20.97;14.50;;;;;;;8.49;56.93;98331.44;6976335;28;20212;-80
2022/12/04 11:19:21;;;;;;;21.87;14.43;;;;;;;8.55;56.02;98342.19;6975765;28;20701;-80
2022/12/04 11:22:50;;;;;;;21.37;13.83;;;;;;;8.97;55.90;98354.47;6976651;28;20268;-79
2022/12/04 11:26:12;;;;;;;20.67;14.73;;;;;;;8.59;54.97;98321.09;6975797;28;20216;-79
2022/12/04 11:29:36;;;;;;;42.17;25.37;;;;;;;8.34;56.82;98311.97;6977348;28;20264;-81
2022/12/04 11:33:00;;;;;;;33.03;19.97;;;;;;;8.58;55.99;98319.44;6986731;28;20273;-80
2022/12/04 11:36:27;;;;;;;26.57;16.93;;;;;;;8.41;56.36;98320.84;7005173;28;20227;-80
2022/12/04 11:39:49;;;;;;;21.93;14.60;;;;;;;8.38;56.51;98340.09;7005811;28;20254;-79
2022/12/04 11:43:14;;;;;;;22.53;13.87;;;;;;;9.13;55.04;98352.19;7005111;28;20238;-80
2022/12/04 11:46:35;;;;;;;26.00;16.00;;;;;;;8.65;55.37;98282.66;7004373;28;20243;-80
2022/12/04 11:50:00;;;;;;;22.87;15.53;;;;;;;8.57;55.36;98345.50;7006292;28;20266;-80
2022/12/04 11:53:28;;;;;;;22.57;14.27;;;;;;;8.65;56.04;98334.56;7003399;28;20235;-80
2022/12/04 11:56:59;;;;;;;22.53;15.13;;;;;;;8.74;55.63;98336.03;7000580;28;20221;-80
2022/12/04 12:00:22;;;;;;;25.43;15.50;;;;;;;8.84;56.10;98336.44;7005906;28;20595;-81
2022/12/04 12:03:56;;;;;;;25.03;15.83;;;;;;;9.03;55.98;98316.81;6980477;28;20263;-81
2022/12/04 12:07:31;;;;;;;23.53;14.20;;;;;;;8.23;56.82;98299.97;6979346;28;20253;-81
2022/12/04 12:10:58;;;;;;;25.70;15.73;;;;;;;8.77;56.45;98324.84;6990049;28;20221;-81
2022/12/04 12:14:25;;;;;;;26.63;15.40;;;;;;;7.97;57.52;98310.59;6991837;28;20205;-80
2022/12/04 12:17:51;;;;;;;28.37;19.60;;;;;;;8.70;56.61;98320.50;7000168;28;20224;-81
2022/12/04 12:21:20;;;;;;;24.20;15.07;;;;;;;8.49;55.84;98291.16;7008304;28;20277;-80
2022/12/04 12:24:48;;;;;;;29.80;17.40;;;;;;;8.79;56.29;98287.03;6964950;28;20215;-82
2022/12/04 12:28:19;;;;;;;23.57;14.90;;;;;;;8.16;56.45;98260.66;6994206;28;20246;-82
2022/12/04 12:31:59;;;;;;;23.10;15.17;;;;;;;8.36;57.67;98291.94;6987882;28;20224;-82
2022/12/04 12:35:24;;;;;;;24.53;14.57;;;;;;;8.43;56.90;98225.63;7007631;28;20316;-82
2022/12/04 12:38:48;;;;;;;25.10;15.03;;;;;;;9.02;56.03;98299.00;7004164;28;20223;-82
2022/12/04 12:42:15;;;;;;;25.47;14.83;;;;;;;8.87;55.77;98276.06;7006409;28;20270;-82
2022/12/04 12:45:45;;;;;;;25.63;15.80;;;;;;;8.73;56.54;98277.91;6996340;28;20203;-82
2022/12/04 12:49:12;;;;;;;24.17;15.40;;;;;;;8.88;56.25;98275.03;7010713;28;20229;-82
2022/12/04 12:52:38;;;;;;;29.37;15.80;;;;;;;8.71;56.26;98306.06;7007357;28;20556;-82
2022/12/04 12:56:02;;;;;;;25.30;15.70;;;;;;;8.80;56.40;98284.16;7005025;28;20195;-81
2022/12/04 12:59:26;;;;;;;24.73;15.50;;;;;;;8.53;56.90;98285.16;7006357;28;20325;-81
2022/12/04 13:02:54;;;;;;;25.80;16.37;;;;;;;8.87;56.13;98270.69;7006032;28;20257;-81
2022/12/04 13:06:18;;;;;;;24.33;15.83;;;;;;;8.69;56.91;98300.88;7005807;28;20694;-81
2022/12/04 13:09:49;;;;;;;26.53;15.37;;;;;;;8.46;56.29;98241.34;7007072;28;20256;-81
2022/12/04 13:13:14;;;;;;;25.83;15.53;;;;;;;8.84;56.53;98314.13;7006152;28;20223;-81
2022/12/04 13:16:39;;;;;;;27.90;14.93;;;;;;;8.83;56.61;98313.28;7007016;28;20198;-80
2022/12/04 13:20:05;;;;;;;26.10;15.33;;;;;;;8.80;56.48;98302.97;7006357;28;20230;-80
2022/12/04 13:23:40;;;;;;;27.20;16.10;;;;;;;8.69;56.40;98274.00;7006618;28;20242;-82
2022/12/04 13:27:05;;;;;;;220.50;85.43;;;;;;;8.57;56.71;98267.59;7006014;28;20204;-81
2022/12/04 13:30:31;;;;;;;26.17;16.13;;;;;;;8.52;57.17;98299.63;7004498;28;20498;-82
2022/12/04 13:34:11;;;;;;;72.70;50.27;;;;;;;8.69;57.19;98314.31;6985002;28;20775;-82
2022/12/04 13:37:50;;;;;;;24.13;15.60;;;;;;;8.69;57.15;98303.56;6975895;28;20277;-83
2022/12/04 13:41:16;;;;;;;27.90;16.33;;;;;;;8.86;56.53;98288.69;6978451;28;20321;-82
2022/12/04 13:44:38;;;;;;;31.73;18.80;;;;;;;8.89;56.39;98315.16;6982986;28;20204;-82
2022/12/04 13:48:00;;;;;;;32.37;22.77;;;;;;;8.81;56.80;98311.84;6981881;28;20305;-82
2022/12/04 13:51:32;;;;;;;27.77;16.83;;;;;;;8.83;56.57;98285.59;6983576;28;20205;-82
2022/12/04 13:54:58;;;;;;;25.33;16.17;;;;;;;8.76;57.20;98293.66;6984213;28;20185;-81
2022/12/04 13:58:27;;;;;;;24.17;15.27;;;;;;;8.46;57.84;98300.44;6984478;28;20227;-82
2022/12/04 14:01:50;;;;;;;23.77;14.80;;;;;;;8.60;57.42;98294.03;6983472;28;20250;-82
2022/12/04 14:05:12;;;;;;;24.50;15.53;;;;;;;8.91;56.81;98278.13;6983368;28;20675;-81
2022/12/04 14:08:38;;;;;;;27.30;15.30;;;;;;;8.49;57.26;98222.09;6983152;28;20258;-81
2022/12/04 14:12:03;;;;;;;22.80;15.13;;;;;;;8.61;57.58;98260.75;6983776;28;20200;-81
2022/12/04 14:15:26;;;;;;;25.67;16.23;;;;;;;8.84;57.60;98277.31;6983587;28;20283;-83
2022/12/04 14:18:49;;;;;;;22.60;15.13;;;;;;;8.74;57.37;98273.38;6984029;28;20626;-79
2022/12/04 14:22:25;;;;;;;28.90;15.80;;;;;;;8.87;57.47;98302.94;6984825;28;20269;-81
2022/12/04 14:25:46;;;;;;;28.23;16.73;;;;;;;8.33;57.50;98254.75;6984797;28;20292;-82
2022/12/04 14:29:30;;;;;;;30.73;17.57;;;;;;;8.11;58.85;98273.88;6983602;28;20256;-80
2022/12/04 14:32:54;;;;;;;34.17;17.90;;;;;;;8.57;59.14;98323.19;6982707;28;20216;-80
2022/12/04 14:36:18;;;;;;;27.50;16.87;;;;;;;8.04;58.63;98230.91;6986285;28;20290;-80
2022/12/04 14:39:43;;;;;;;30.87;15.97;;;;;;;8.45;58.80;98268.41;6983138;28;20232;-79
2022/12/04 14:43:05;;;;;;;28.37;17.03;;;;;;;8.51;58.77;98294.44;6984552;28;20207;-79
2022/12/04 14:46:34;;;;;;;34.97;17.43;;;;;;;8.69;58.59;98308.94;6985305;28;20211;-82
2022/12/04 14:50:05;;;;;;;25.77;14.73;;;;;;;8.51;58.45;98299.81;6985730;28;20729;-83
2022/12/04 14:53:35;;;;;;;30.40;17.50;;;;;;;8.77;58.31;98313.31;6983409;28;20201;-80
2022/12/04 14:57:10;;;;;;;30.57;17.63;;;;;;;8.70;58.21;98302.53;6987015;28;20674;-80
2022/12/04 15:00:32;;;;;;;32.40;16.67;;;;;;;8.47;58.93;98272.53;6984384;28;20321;-80
2022/12/04 15:03:57;;;;;;;33.73;17.97;;;;;;;8.33;59.23;98295.03;6985351;28;20208;-80
2022/12/04 15:07:20;;;;;;;35.33;18.30;;;;;;;8.28;59.92;98315.47;6982919;28;20611;-81
2022/12/04 15:14:28;;;;;;;38.33;18.17;;;;;;;8.59;58.74;98323.78;7006488;28;20226;-82
2022/12/04 15:17:59;;;;;;;35.13;18.53;;;;;;;8.72;59.37;98338.09;7012824;28;20261;-82
2022/12/04 15:21:22;;;;;;;39.03;19.60;;;;;;;8.04;59.79;98268.50;7016368;28;20330;-82
2022/12/04 15:24:44;;;;;;;37.03;20.17;;;;;;;8.68;59.04;98333.31;7030935;28;20205;-82
2022/12/04 15:31:47;;;;;;;35.73;20.60;;;;;;;8.55;59.52;98322.56;7016255;28;20199;-80
2022/12/04 15:35:15;;;;;;;39.03;19.73;;;;;;;8.56;59.01;98306.25;6994856;28;20248;-81
2022/12/04 15:38:39;;;;;;;41.80;20.37;;;;;;;8.76;59.62;98331.28;6978648;28;20231;-81
2022/12/04 15:42:05;;;;;;;36.80;19.63;;;;;;;8.36;59.54;98294.63;6977073;28;20238;-80
2022/12/04 15:45:33;;;;;;;47.17;24.70;;;;;;;8.40;60.10;98292.34;6975531;28;20333;-81
2022/12/04 15:49:06;;;;;;;37.07;18.87;;;;;;;8.39;60.08;98306.81;6978063;28;20238;-81
2022/12/04 15:52:28;;;;;;;62.47;30.97;;;;;;;8.44;60.66;98315.09;6977160;28;20712;-83
2022/12/04 15:55:52;;;;;;;131.17;61.50;;;;;;;8.53;60.23;98322.75;6978782;28;20235;-82
2022/12/04 15:59:17;;;;;;;51.63;29.37;;;;;;;8.44;60.42;98320.47;6978319;28;20262;-82
2022/12/04 16:02:41;;;;;;;71.17;41.87;;;;;;;8.54;60.22;98319.03;6980719;28;20234;-82
2022/12/04 16:06:05;;;;;;;36.77;18.20;;;;;;;8.52;59.90;98296.09;6979500;28;20240;-82
2022/12/04 16:09:28;;;;;;;41.27;19.53;;;;;;;7.95;60.53;98237.47;6980437;28;20278;-82
2022/12/04 16:12:54;;;;;;;41.60;18.87;;;;;;;8.38;60.99;98313.22;6980103;28;20241;-81
2022/12/04 16:16:17;;;;;;;40.47;20.20;;;;;;;8.37;60.95;98290.09;6980502;28;20255;-82
2022/12/04 16:19:40;;;;;;;34.73;18.50;;;;;;;8.49;60.82;98308.06;6980670;28;20591;-82
2022/12/04 16:23:02;;;;;;;34.37;17.33;;;;;;;8.12;61.66;98321.16;6982368;28;20227;-82
2022/12/04 16:26:23;;;;;;;34.13;18.10;;;;;;;8.09;61.53;98298.25;6982528;28;20223;-82
2022/12/04 16:29:46;;;;;;;38.23;19.30;;;;;;;8.14;61.71;98305.69;6984076;28;20292;-82
2022/12/04 16:33:09;;;;;;;46.43;21.30;;;;;;;8.60;60.86;98291.34;6983202;28;20208;-82
2022/12/04 16:36:30;;;;;;;45.60;23.53;;;;;;;8.66;60.67;98306.66;6982685;28;20303;-82
2022/12/04 16:39:52;;;;;;;41.97;22.10;;;;;;;8.32;60.84;98300.59;6982620;28;20938;-82
2022/12/04 16:43:14;;;;;;;39.73;20.63;;;;;;;8.06;62.16;98311.22;6983515;28;20206;-82
2022/12/04 16:46:37;;;;;;;35.87;20.50;;;;;;;8.25;61.54;98289.03;6982692;28;20206;-82
2022/12/04 16:49:59;;;;;;;37.83;19.13;;;;;;;8.05;62.30;98274.66;6983018;28;20232;-82
2022/12/04 16:53:22;;;;;;;38.60;20.47;;;;;;;8.35;61.24;98276.00;6982684;28;20254;-82